createdAt,value
2022-10-05T00:02:22.947Z,15.16
2022-10-05T00:04:54.589Z,15.15
2022-10-05T00:07:24.055Z,15.21
2022-10-05T00:09:59.723Z,15.20
2022-10-05T00:12:29.775Z,15.20
2022-10-05T00:15:01.251Z,15.20
2022-10-05T00:17:31.262Z,15.17
2022-10-05T00:19:58.766Z,15.18
2022-10-05T00:22:34.749Z,15.15
2022-10-05T00:25:04.241Z,15.17
2022-10-05T00:27:38.899Z,15.17
2022-10-05T00:30:16.227Z,15.17
2022-10-05T00:32:44.306Z,15.12
2022-10-05T00:35:13.709Z,15.16
2022-10-05T00:37:41.998Z,15.15
2022-10-05T00:40:29.468Z,15.16
2022-10-05T00:43:15.952Z,15.11
2022-10-05T00:45:49.314Z,15.10
2022-10-05T00:48:30.459Z,15.07
2022-10-05T00:51:19.462Z,15.05
2022-10-05T00:53:46.881Z,15.05
2022-10-05T00:56:26.556Z,15.06
2022-10-05T00:59:13.639Z,14.99
2022-10-05T01:01:49.365Z,15.01
2022-10-05T01:04:19.678Z,15.00
2022-10-05T01:07:07.796Z,15.03
2022-10-05T01:10:01.414Z,15.04
2022-10-05T01:12:47.645Z,15.03
2022-10-05T01:15:49.283Z,15.02
2022-10-05T01:18:39.041Z,15.02
2022-10-05T01:21:21.437Z,15.05
2022-10-05T01:23:54.762Z,15.05
2022-10-05T01:26:28.048Z,15.04
2022-10-05T01:29:12.506Z,14.96
2022-10-05T01:31:50.854Z,14.96
2022-10-05T01:34:36.206Z,14.94
2022-10-05T01:37:24.757Z,14.87
2022-10-05T01:40:16.674Z,14.84
2022-10-05T01:43:19.595Z,14.80
2022-10-05T01:45:57.044Z,14.75
2022-10-05T01:49:03.138Z,14.68
2022-10-05T01:51:56.704Z,14.64
2022-10-05T01:54:40.862Z,14.61
2022-10-05T01:57:14.146Z,14.58
2022-10-05T02:00:06.576Z,14.56
2022-10-05T02:02:40.609Z,14.55
2022-10-05T02:05:17.182Z,14.55
2022-10-05T02:07:51.614Z,14.52
2022-10-05T02:10:22.083Z,14.56
2022-10-05T02:12:53.923Z,14.55
2022-10-05T02:15:28.293Z,14.57
2022-10-05T02:18:07.670Z,14.55
2022-10-05T02:20:38.577Z,14.55
2022-10-05T02:23:11.819Z,14.49
2022-10-05T02:25:43.837Z,14.47
2022-10-05T02:28:19.215Z,14.43
2022-10-05T02:30:53.076Z,14.39
2022-10-05T02:33:29.526Z,14.37
2022-10-05T02:36:02.804Z,14.33
2022-10-05T02:38:52.587Z,14.26
2022-10-05T02:41:46.940Z,14.29
2022-10-05T02:44:56.837Z,14.22
2022-10-05T02:47:33.462Z,14.20
2022-10-05T02:50:27.114Z,14.17
2022-10-05T02:53:06.270Z,14.19
2022-10-05T02:56:04.283Z,14.18
2022-10-05T02:58:52.674Z,14.19
2022-10-05T03:01:32.314Z,14.17
2022-10-05T03:04:15.278Z,14.23
2022-10-05T03:07:02.977Z,14.22
2022-10-05T03:09:38.395Z,14.24
2022-10-05T03:12:45.786Z,14.23
2022-10-05T03:15:35.033Z,14.19
2022-10-05T03:18:19.084Z,14.19
2022-10-05T03:21:05.080Z,14.19
2022-10-05T03:23:45.212Z,14.23
2022-10-05T03:26:30.175Z,14.22
2022-10-05T03:29:12.696Z,14.26
2022-10-05T03:32:01.540Z,14.26
2022-10-05T03:34:51.693Z,14.27
2022-10-05T03:37:28.002Z,14.31
2022-10-05T03:40:10.258Z,14.32
2022-10-05T03:42:47.543Z,14.31
2022-10-05T03:45:32.409Z,14.33
2022-10-05T03:48:06.347Z,14.36
2022-10-05T03:51:00.617Z,14.38
2022-10-05T03:53:38.684Z,14.36
2022-10-05T03:56:13.940Z,14.33
2022-10-05T03:58:57.125Z,14.37
2022-10-05T04:01:34.608Z,14.40
2022-10-05T04:04:06.011Z,14.41
2022-10-05T04:06:43.075Z,14.42
2022-10-05T04:09:37.527Z,14.38
2022-10-05T04:12:28.551Z,14.38
2022-10-05T04:15:05.437Z,14.43
2022-10-05T04:17:39.545Z,14.46
2022-10-05T04:20:22.770Z,14.47
2022-10-05T04:23:18.086Z,14.49
2022-10-05T04:25:57.179Z,14.51
2022-10-05T04:28:34.534Z,14.44
2022-10-05T04:31:06.110Z,14.48
2022-10-05T04:33:34.061Z,14.52
2022-10-05T04:36:17.847Z,14.54
2022-10-05T04:38:57.480Z,14.53
2022-10-05T04:41:46.042Z,14.53
2022-10-05T04:44:36.861Z,14.51
2022-10-05T04:47:23.020Z,14.55
2022-10-05T04:50:29.094Z,14.59
2022-10-05T04:53:05.546Z,14.62
2022-10-05T04:55:47.235Z,14.60
2022-10-05T04:58:46.386Z,14.62
2022-10-05T05:01:16.807Z,14.66
2022-10-05T05:03:44.312Z,14.63
2022-10-05T05:06:23.871Z,14.67
2022-10-05T05:09:22.210Z,14.68
2022-10-05T05:12:11.124Z,14.69
2022-10-05T05:14:56.627Z,14.72
2022-10-05T05:17:33.975Z,14.72
2022-10-05T05:20:23.657Z,14.71
2022-10-05T05:23:06.917Z,14.72
2022-10-05T05:25:52.164Z,14.72
2022-10-05T05:28:41.114Z,14.73
2022-10-05T05:31:26.049Z,14.74
2022-10-05T05:34:11.450Z,14.75
2022-10-05T05:36:46.246Z,14.74
2022-10-05T05:39:28.799Z,14.80
2022-10-05T05:42:08.773Z,14.79
2022-10-05T05:44:50.837Z,14.76
2022-10-05T05:47:37.751Z,14.79
2022-10-05T05:50:27.918Z,14.79
2022-10-05T05:53:06.968Z,14.77
2022-10-05T05:55:41.246Z,14.82
2022-10-05T05:58:30.678Z,14.73
2022-10-05T06:01:06.951Z,14.79
2022-10-05T06:04:32.354Z,14.78
2022-10-05T06:07:03.640Z,14.79
2022-10-05T06:09:48.597Z,14.83
2022-10-05T06:12:37.141Z,14.84
2022-10-05T06:15:38.403Z,14.87
2022-10-05T06:18:12.436Z,14.86
2022-10-05T06:21:00.771Z,14.87
2022-10-05T06:23:41.923Z,14.82
2022-10-05T06:26:18.685Z,14.88
2022-10-05T06:28:53.068Z,14.86
2022-10-05T06:31:38.906Z,14.91
2022-10-05T06:34:20.337Z,14.92
2022-10-05T06:36:57.118Z,14.92
2022-10-05T06:39:27.293Z,14.96
2022-10-05T06:42:13.686Z,14.98
2022-10-05T06:44:47.863Z,15.03
2022-10-05T06:47:42.337Z,15.05
2022-10-05T06:50:42.063Z,15.01
2022-10-05T06:53:31.193Z,15.08
2022-10-05T06:56:17.495Z,15.07
2022-10-05T06:59:03.863Z,15.01
2022-10-05T07:01:47.840Z,15.12
2022-10-05T07:04:36.928Z,15.10
2022-10-05T07:07:38.570Z,15.08
2022-10-05T07:10:16.501Z,15.13
2022-10-05T07:12:59.840Z,15.08
2022-10-05T07:15:39.665Z,15.00
2022-10-05T07:18:10.047Z,15.13
2022-10-05T07:20:40.297Z,15.12
2022-10-05T07:23:22.846Z,15.07
2022-10-05T07:26:00.940Z,15.08
2022-10-05T07:28:37.467Z,15.06
2022-10-05T07:31:10.424Z,15.10
2022-10-05T07:34:05.933Z,15.06
2022-10-05T07:37:01.506Z,15.09
2022-10-05T07:39:58.679Z,15.06
2022-10-05T07:42:50.677Z,15.14
2022-10-05T07:45:27.743Z,15.07
2022-10-05T07:48:04.952Z,14.95
2022-10-05T07:50:57.755Z,15.15
2022-10-05T07:53:39.394Z,15.15
2022-10-05T07:56:17.870Z,15.17
2022-10-05T07:58:49.416Z,15.15
2022-10-05T08:01:25.712Z,15.18
2022-10-05T08:04:02.503Z,15.21
2022-10-05T08:06:39.078Z,15.28
2022-10-05T08:09:26.908Z,15.32
2022-10-05T08:12:00.782Z,15.27
2022-10-05T08:14:53.891Z,15.38
2022-10-05T08:17:54.195Z,15.33
2022-10-05T08:20:53.608Z,15.36
2022-10-05T08:23:36.461Z,15.42
2022-10-05T08:26:06.615Z,15.49
2022-10-05T08:28:38.715Z,15.49
2022-10-05T08:31:09.008Z,15.51
2022-10-05T08:33:54.484Z,15.42
2022-10-05T08:36:31.681Z,15.43
2022-10-05T08:39:04.091Z,15.44
2022-10-05T08:41:59.629Z,15.46
2022-10-05T08:44:58.269Z,15.57
2022-10-05T08:47:46.374Z,15.57
2022-10-05T08:50:32.861Z,15.62
2022-10-05T08:53:21.726Z,15.57
2022-10-05T08:56:28.450Z,15.62
2022-10-05T08:59:02.670Z,15.62
2022-10-05T09:01:52.049Z,15.72
2022-10-05T09:04:49.679Z,15.79
2022-10-05T09:07:37.238Z,15.80
2022-10-05T09:10:04.680Z,15.95
2022-10-05T09:12:59.876Z,16.01
2022-10-05T09:15:55.703Z,16.00
2022-10-05T09:19:11.854Z,16.00
2022-10-05T09:21:47.793Z,15.97
2022-10-05T09:24:15.374Z,16.08
2022-10-05T09:26:53.607Z,16.03
2022-10-05T09:29:36.097Z,16.12
2022-10-05T09:32:14.233Z,16.25
2022-10-05T09:34:59.919Z,16.23
2022-10-05T09:37:58.393Z,16.32
2022-10-05T09:40:31.678Z,16.30
2022-10-05T09:43:36.535Z,16.56
2022-10-05T09:46:22.341Z,16.58
2022-10-05T09:48:55.986Z,16.73
2022-10-05T09:51:35.354Z,16.81
2022-10-05T09:54:11.767Z,16.81
2022-10-05T09:57:14.071Z,16.80
2022-10-05T09:59:58.362Z,16.62
2022-10-05T10:02:53.053Z,16.78
2022-10-05T10:05:58.709Z,17.05
2022-10-05T10:09:08.087Z,17.05
2022-10-05T10:12:05.021Z,17.03
2022-10-05T10:14:43.985Z,16.98
2022-10-05T10:17:44.411Z,16.97
2022-10-05T10:20:36.671Z,17.05
2022-10-05T10:23:35.081Z,16.99
2022-10-05T10:26:25.503Z,16.91
2022-10-05T10:29:30.800Z,16.88
2022-10-05T10:32:37.424Z,16.78
2022-10-05T10:35:27.855Z,16.93
2022-10-05T10:38:32.835Z,16.96
2022-10-05T10:41:12.617Z,16.84
2022-10-05T10:44:19.867Z,16.86
2022-10-05T10:47:06.459Z,16.72
2022-10-05T10:50:08.588Z,16.67
2022-10-05T10:52:42.143Z,16.86
2022-10-05T10:55:31.092Z,16.69
2022-10-05T10:57:58.633Z,16.76
2022-10-05T11:00:55.013Z,16.76
2022-10-05T11:03:47.199Z,16.67
2022-10-05T11:06:29.586Z,16.75
2022-10-05T11:09:21.736Z,16.84
2022-10-05T11:12:30.944Z,16.76
2022-10-05T11:15:10.826Z,16.81
2022-10-05T11:17:58.057Z,16.85
2022-10-05T11:20:57.037Z,17.02
2022-10-05T11:23:46.281Z,17.02
2022-10-05T11:26:32.862Z,16.95
2022-10-05T11:29:37.275Z,17.03
2022-10-05T11:32:29.561Z,17.03
2022-10-05T11:35:24.511Z,17.07
2022-10-05T11:38:14.004Z,17.06
2022-10-05T11:40:47.669Z,16.99
2022-10-05T11:43:41.699Z,17.02
2022-10-05T11:46:23.227Z,17.07
2022-10-05T11:49:11.946Z,17.09
2022-10-05T11:51:48.539Z,17.17
2022-10-05T11:57:52.871Z,17.28
2022-10-05T12:00:22.040Z,17.29
2022-10-05T12:03:12.381Z,17.40
2022-10-05T12:06:04.679Z,17.28
2022-10-05T12:08:43.694Z,17.34
2022-10-05T12:11:26.373Z,17.15
2022-10-05T12:13:59.856Z,17.35
2022-10-05T12:16:39.452Z,17.46
2022-10-05T12:19:26.136Z,17.50
2022-10-05T12:21:53.546Z,17.36
2022-10-05T12:24:30.445Z,17.42
2022-10-05T12:27:10.764Z,17.60
2022-10-05T12:29:49.762Z,17.78
2022-10-05T12:32:40.681Z,17.87
2022-10-05T12:35:08.296Z,17.91
2022-10-05T12:37:38.492Z,18.00
2022-10-05T12:40:23.362Z,17.87
2022-10-05T12:43:28.809Z,17.80
2022-10-05T12:46:04.162Z,17.79
2022-10-05T12:48:45.454Z,17.88
2022-10-05T12:51:12.880Z,17.97
2022-10-05T12:54:02.799Z,17.92
2022-10-05T12:56:54.815Z,17.91
2022-10-05T12:59:58.751Z,18.03
2022-10-05T13:02:49.147Z,18.03
2022-10-05T13:05:27.414Z,17.93
2022-10-05T13:08:09.463Z,17.92
2022-10-05T13:11:01.997Z,18.02
2022-10-05T13:13:35.766Z,17.99
2022-10-05T13:16:21.992Z,18.11
2022-10-05T13:19:07.553Z,18.00
2022-10-05T13:21:47.253Z,18.23
2022-10-05T13:24:26.622Z,18.32
2022-10-05T13:27:05.031Z,18.35
2022-10-05T13:29:39.707Z,18.42
2022-10-05T13:32:16.780Z,18.16
2022-10-05T13:34:56.508Z,18.03
2022-10-05T13:37:32.792Z,18.15
2022-10-05T13:40:15.115Z,18.20
2022-10-05T13:42:56.341Z,18.16
2022-10-05T13:45:41.095Z,18.22
2022-10-05T13:48:40.505Z,18.32
2022-10-05T13:51:24.979Z,18.03
2022-10-05T13:54:02.702Z,18.07
2022-10-05T13:56:34.621Z,18.04
2022-10-05T13:59:17.093Z,17.84
2022-10-05T14:01:54.000Z,17.91
2022-10-05T14:04:49.594Z,17.93
2022-10-05T14:07:25.917Z,17.91
2022-10-05T14:09:53.516Z,17.95
2022-10-05T14:12:23.520Z,18.10
2022-10-05T14:14:54.143Z,17.93
2022-10-05T14:17:30.601Z,17.88
2022-10-05T14:20:03.341Z,17.72
2022-10-05T14:22:30.924Z,17.83
2022-10-05T14:25:17.074Z,17.72
2022-10-05T14:27:56.760Z,17.82
2022-10-05T14:30:26.984Z,17.78
2022-10-05T14:33:06.577Z,17.81
2022-10-05T14:35:54.670Z,17.91
2022-10-05T14:38:28.117Z,17.85
2022-10-05T14:41:19.094Z,17.79
2022-10-05T14:44:14.571Z,17.57
2022-10-05T14:46:55.284Z,17.62
2022-10-05T14:49:28.240Z,17.65
2022-10-05T14:51:57.097Z,17.59
2022-10-05T14:54:27.696Z,17.66
2022-10-05T14:57:25.321Z,17.72
2022-10-05T15:00:09.440Z,17.78
2022-10-05T15:03:05.323Z,17.77
2022-10-05T15:05:40.510Z,17.71
2022-10-05T15:08:37.881Z,17.68
2022-10-05T15:11:11.562Z,17.51
2022-10-05T15:13:42.981Z,17.58
2022-10-05T15:16:20.067Z,17.55
2022-10-05T15:18:59.598Z,17.52
2022-10-05T15:21:49.510Z,17.46
2022-10-05T15:24:21.813Z,17.56
2022-10-05T15:27:02.188Z,17.51
2022-10-05T15:29:57.725Z,17.50
2022-10-05T15:32:38.024Z,17.48
2022-10-05T15:35:14.499Z,17.42
2022-10-05T15:37:47.481Z,17.35
2022-10-05T15:40:27.959Z,17.34
2022-10-05T15:43:01.773Z,17.41
2022-10-05T15:45:37.561Z,17.42
2022-10-05T15:48:20.883Z,17.37
2022-10-05T15:51:00.308Z,17.34
2022-10-05T15:53:35.404Z,17.26
2022-10-05T15:56:16.781Z,17.26
2022-10-05T15:59:06.962Z,17.20
2022-10-05T16:01:34.419Z,17.17
2022-10-05T16:04:38.699Z,17.11
2022-10-05T16:07:31.531Z,17.12
2022-10-05T16:10:17.745Z,17.06
2022-10-05T16:13:07.402Z,17.10
2022-10-05T16:15:48.619Z,17.01
2022-10-05T16:18:51.455Z,17.03
2022-10-05T16:21:23.508Z,16.98
2022-10-05T16:23:56.849Z,16.93
2022-10-05T16:26:38.644Z,16.88
2022-10-05T16:29:10.469Z,16.91
2022-10-05T16:32:15.179Z,16.90
2022-10-05T16:34:49.353Z,16.83
2022-10-05T16:37:32.015Z,16.86
2022-10-05T16:40:09.582Z,16.82
2022-10-05T16:42:56.767Z,16.81
2022-10-05T16:45:53.115Z,16.72
2022-10-05T16:48:27.274Z,16.71
2022-10-05T16:51:16.934Z,16.75
2022-10-05T16:54:08.238Z,16.71
2022-10-05T16:57:01.962Z,16.73
2022-10-05T16:59:53.789Z,16.74
2022-10-05T17:02:27.227Z,16.71
2022-10-05T17:05:16.532Z,16.70
2022-10-05T17:08:19.225Z,16.62
2022-10-05T17:11:05.030Z,16.63
2022-10-05T17:14:11.705Z,16.65
2022-10-05T17:17:07.133Z,16.65
2022-10-05T17:19:49.038Z,16.65
2022-10-05T17:22:39.702Z,16.62
2022-10-05T17:25:41.557Z,16.65
2022-10-05T17:28:41.903Z,16.61
2022-10-05T17:31:14.169Z,16.62
2022-10-05T17:33:59.999Z,16.62
2022-10-05T17:36:49.351Z,16.62
2022-10-05T17:39:19.558Z,16.63
2022-10-05T17:41:47.081Z,16.59
2022-10-05T17:44:16.267Z,16.62
2022-10-05T17:46:45.913Z,16.55
2022-10-05T17:49:38.109Z,16.62
2022-10-05T17:52:39.335Z,16.59
2022-10-05T17:55:44.032Z,16.56
2022-10-05T17:58:31.728Z,16.59
2022-10-05T18:00:59.770Z,16.57
2022-10-05T18:03:36.471Z,16.59
2022-10-05T18:06:33.229Z,16.62
2022-10-05T18:09:12.942Z,16.65
2022-10-05T18:11:43.238Z,16.64
2022-10-05T18:14:50.897Z,16.63
2022-10-05T18:17:54.651Z,16.65
2022-10-05T18:20:26.365Z,16.73
2022-10-05T18:23:15.009Z,16.70
2022-10-05T18:25:52.735Z,16.75
2022-10-05T18:28:26.342Z,16.80
2022-10-05T18:31:21.151Z,16.80
2022-10-05T18:34:02.985Z,16.83
2022-10-05T18:36:56.802Z,16.88
2022-10-05T18:39:55.434Z,16.86
2022-10-05T18:42:58.290Z,16.88
2022-10-05T18:45:56.375Z,16.91
2022-10-05T18:48:40.102Z,16.93
2022-10-05T18:51:32.077Z,16.90
2022-10-05T18:54:13.601Z,16.90
2022-10-05T18:56:51.427Z,16.93
2022-10-05T18:59:36.969Z,16.90
2022-10-05T19:02:27.039Z,16.79
2022-10-05T19:05:46.261Z,16.62
2022-10-05T19:08:34.137Z,16.54
2022-10-05T19:11:01.777Z,16.38
2022-10-05T19:13:47.485Z,16.34
2022-10-05T19:16:52.387Z,16.30
2022-10-05T19:19:38.710Z,16.30
2022-10-05T19:22:29.550Z,16.29
2022-10-05T19:25:23.596Z,16.31
2022-10-05T19:27:57.107Z,16.31
2022-10-05T19:30:30.003Z,16.24
2022-10-05T19:33:23.098Z,16.11
2022-10-05T19:36:22.065Z,15.67
2022-10-05T19:38:58.284Z,15.25
2022-10-05T19:41:54.123Z,14.41
2022-10-05T19:44:38.464Z,14.16
2022-10-05T19:47:45.014Z,13.96
2022-10-05T19:50:32.670Z,13.84
2022-10-05T19:53:13.441Z,13.75
2022-10-05T19:55:43.563Z,13.72
2022-10-05T19:58:18.160Z,13.67
2022-10-05T20:00:53.948Z,13.59
2022-10-05T20:03:27.217Z,13.58
2022-10-05T20:06:05.504Z,13.58
2022-10-05T20:08:50.870Z,13.59
2022-10-05T20:11:22.433Z,13.61
2022-10-05T20:13:52.870Z,13.64
2022-10-05T20:19:52.177Z,13.68
2022-10-05T20:22:28.573Z,13.71
2022-10-05T20:24:58.758Z,13.70
2022-10-05T20:27:41.312Z,13.73
2022-10-05T20:30:11.106Z,13.77
2022-10-05T20:32:38.549Z,13.81
2022-10-05T20:35:14.585Z,13.82
2022-10-05T20:37:42.042Z,13.72
2022-10-05T20:40:10.309Z,13.82
2022-10-05T20:42:38.117Z,13.82
2022-10-05T20:45:06.343Z,13.86
2022-10-05T20:47:34.187Z,13.85
2022-10-05T20:50:05.468Z,13.87
2022-10-05T20:52:32.936Z,13.89
2022-10-05T20:55:00.541Z,13.84
2022-10-05T20:57:28.171Z,13.86
2022-10-05T20:59:55.736Z,13.75
2022-10-05T21:02:23.381Z,13.57
2022-10-05T21:04:51.259Z,13.31
2022-10-05T21:07:21.093Z,13.29
2022-10-05T21:09:48.637Z,13.23
2022-10-05T21:12:19.545Z,13.15
2022-10-05T21:14:47.429Z,13.08
2022-10-05T21:17:15.027Z,13.12
2022-10-05T21:19:42.558Z,13.09
2022-10-05T21:22:11.008Z,13.09
2022-10-05T21:24:40.779Z,13.07
2022-10-05T21:27:09.804Z,13.07
2022-10-05T21:29:40.923Z,13.04
2022-10-05T21:32:11.568Z,13.07
2022-10-05T21:34:40.178Z,13.05
2022-10-05T21:37:08.950Z,12.98
2022-10-05T21:39:36.742Z,12.96
2022-10-05T21:42:04.931Z,12.91
2022-10-05T21:44:32.438Z,12.92
2022-10-05T21:46:59.985Z,12.95
2022-10-05T21:49:29.040Z,12.95
2022-10-05T21:51:57.674Z,12.95
2022-10-05T21:54:25.349Z,12.89
2022-10-05T21:56:55.704Z,12.81
2022-10-05T21:59:28.366Z,12.75
2022-10-05T22:01:56.208Z,12.70
2022-10-05T22:04:23.743Z,12.66
2022-10-05T22:06:51.213Z,12.66
2022-10-05T22:09:18.787Z,12.63
2022-10-05T22:11:49.768Z,12.60
2022-10-05T22:14:17.586Z,12.58
2022-10-05T22:16:45.703Z,12.57
2022-10-05T22:19:19.964Z,12.57
2022-10-05T22:21:47.535Z,12.59
2022-10-05T22:24:15.006Z,12.59
2022-10-05T22:26:45.795Z,12.58
2022-10-05T22:29:13.837Z,12.55
2022-10-05T22:31:41.456Z,12.58
2022-10-05T22:34:08.949Z,12.56
2022-10-05T22:36:37.302Z,12.56
2022-10-05T22:39:04.851Z,12.57
2022-10-05T22:41:32.384Z,12.57
2022-10-05T22:44:00.383Z,12.60
2022-10-05T22:46:27.901Z,12.58
2022-10-05T22:48:55.396Z,12.56
2022-10-05T22:51:22.869Z,12.56
2022-10-05T22:53:50.397Z,12.52
2022-10-05T22:56:17.928Z,12.56
2022-10-05T22:58:46.055Z,12.57
2022-10-05T23:01:15.988Z,12.55
2022-10-05T23:03:44.488Z,12.53
2022-10-05T23:06:18.188Z,12.55
2022-10-05T23:08:46.228Z,12.59
2022-10-05T23:11:16.846Z,12.60
2022-10-05T23:13:44.962Z,12.68
2022-10-05T23:16:15.540Z,12.75
2022-10-05T23:18:43.615Z,12.81
2022-10-05T23:21:12.212Z,12.79
2022-10-05T23:23:41.510Z,12.83
2022-10-05T23:26:11.381Z,12.85
2022-10-05T23:28:42.920Z,12.86
2022-10-05T23:31:10.798Z,12.80
2022-10-05T23:33:38.343Z,12.80
2022-10-05T23:36:17.410Z,12.78
2022-10-05T23:38:45.261Z,12.69
2022-10-05T23:41:13.635Z,12.63
2022-10-05T23:43:41.286Z,12.56
2022-10-05T23:46:09.935Z,12.48
2022-10-05T23:48:38.952Z,12.43
2022-10-05T23:51:08.863Z,12.40
2022-10-05T23:53:36.807Z,12.36
2022-10-05T23:56:04.763Z,12.26
2022-10-05T23:58:32.619Z,12.26
